sensor_id;sensor_type;location;lat;lon;timestamp;pressure;altitude;pressure_sealevel;temperature;humidity
66176;BME280;52977;44.816;20.538;2023-02-03T00:01:34;100430.69;;;4.60;76.71
66176;BME280;52977;44.816;20.538;2023-02-03T00:04:00;100429.00;;;4.54;77.52
66176;BME280;52977;44.816;20.538;2023-02-03T00:06:26;100407.78;;;4.25;78.63
66176;BME280;52977;44.816;20.538;2023-02-03T00:08:54;100430.38;;;4.04;79.99
66176;BME280;52977;44.816;20.538;2023-02-03T00:11:20;100413.16;;;4.15;79.26
66176;BME280;52977;44.816;20.538;2023-02-03T00:13:46;100444.50;;;4.16;80.12
66176;BME280;52977;44.816;20.538;2023-02-03T00:16:12;100443.31;;;3.97;80.95
66176;BME280;52977;44.816;20.538;2023-02-03T00:18:37;100452.25;;;4.07;80.40
66176;BME280;52977;44.816;20.538;2023-02-03T00:21:04;100453.31;;;4.01;80.66
66176;BME280;52977;44.816;20.538;2023-02-03T00:23:30;100435.75;;;3.99;81.07
66176;BME280;52977;44.816;20.538;2023-02-03T00:25:57;100406.03;;;3.99;80.55
66176;BME280;52977;44.816;20.538;2023-02-03T00:28:23;100456.16;;;4.22;80.55
66176;BME280;52977;44.816;20.538;2023-02-03T00:30:52;100439.91;;;4.17;79.85
66176;BME280;52977;44.816;20.538;2023-02-03T00:33:18;100446.13;;;4.17;80.70
66176;BME280;52977;44.816;20.538;2023-02-03T00:35:44;100446.38;;;4.10;80.79
66176;BME280;52977;44.816;20.538;2023-02-03T00:38:10;100444.78;;;3.77;81.91
66176;BME280;52977;44.816;20.538;2023-02-03T00:40:36;100438.81;;;3.75;82.89
66176;BME280;52977;44.816;20.538;2023-02-03T00:43:01;100397.81;;;3.46;82.84
66176;BME280;52977;44.816;20.538;2023-02-03T00:45:27;100404.91;;;3.52;82.36
66176;BME280;52977;44.816;20.538;2023-02-03T00:47:53;100468.97;;;3.67;83.82
66176;BME280;52977;44.816;20.538;2023-02-03T00:50:19;100478.94;;;3.61;85.34
66176;BME280;52977;44.816;20.538;2023-02-03T00:52:45;100408.28;;;3.37;84.70
66176;BME280;52977;44.816;20.538;2023-02-03T00:55:11;100472.72;;;3.93;83.05
66176;BME280;52977;44.816;20.538;2023-02-03T00:57:37;100424.59;;;3.52;83.38
66176;BME280;52977;44.816;20.538;2023-02-03T01:00:05;100476.19;;;3.88;82.67
66176;BME280;52977;44.816;20.538;2023-02-03T01:02:31;100474.50;;;3.77;83.93
66176;BME280;52977;44.816;20.538;2023-02-03T01:04:57;100499.19;;;3.91;83.86
66176;BME280;52977;44.816;20.538;2023-02-03T01:07:25;100489.91;;;3.82;83.86
66176;BME280;52977;44.816;20.538;2023-02-03T01:09:51;100483.97;;;3.80;83.71
66176;BME280;52977;44.816;20.538;2023-02-03T01:12:17;100452.78;;;3.67;83.43
66176;BME280;52977;44.816;20.538;2023-02-03T01:14:43;100494.59;;;3.91;83.57
66176;BME280;52977;44.816;20.538;2023-02-03T01:17:09;100475.13;;;3.89;82.68
66176;BME280;52977;44.816;20.538;2023-02-03T01:19:34;100475.47;;;3.98;82.80
66176;BME280;52977;44.816;20.538;2023-02-03T01:22:00;100503.00;;;3.95;83.12
66176;BME280;52977;44.816;20.538;2023-02-03T01:24:28;100431.06;;;3.51;84.19
66176;BME280;52977;44.816;20.538;2023-02-03T01:26:54;100414.19;;;3.34;83.91
66176;BME280;52977;44.816;20.538;2023-02-03T01:29:20;100392.72;;;2.89;84.89
66176;BME280;52977;44.816;20.538;2023-02-03T01:31:47;100494.47;;;3.49;85.03
66176;BME280;52977;44.816;20.538;2023-02-03T01:34:13;100485.56;;;3.21;86.26
66176;BME280;52977;44.816;20.538;2023-02-03T01:36:42;100510.66;;;3.49;87.50
66176;BME280;52977;44.816;20.538;2023-02-03T01:39:08;100459.50;;;3.32;85.06
66176;BME280;52977;44.816;20.538;2023-02-03T01:41:36;100508.75;;;3.76;84.91
66176;BME280;52977;44.816;20.538;2023-02-03T01:47:21;100478.91;;;3.56;85.16
66176;BME280;52977;44.816;20.538;2023-02-03T01:50:10;100467.25;;;3.50;85.52
66176;BME280;52977;44.816;20.538;2023-02-03T01:52:40;100504.69;;;3.74;85.21
66176;BME280;52977;44.816;20.538;2023-02-03T01:55:17;100506.59;;;3.73;84.69
66176;BME280;52977;44.816;20.538;2023-02-03T01:57:53;100500.50;;;3.56;85.63
66176;BME280;52977;44.816;20.538;2023-02-03T02:00:20;100517.69;;;3.77;85.96
66176;BME280;52977;44.816;20.538;2023-02-03T02:02:47;100468.25;;;3.44;84.93
66176;BME280;52977;44.816;20.538;2023-02-03T02:05:51;100510.44;;;3.83;85.10
66176;BME280;52977;44.816;20.538;2023-02-03T02:08:19;100498.53;;;3.51;84.97
66176;BME280;52977;44.816;20.538;2023-02-03T02:10:47;100487.75;;;3.51;85.27
66176;BME280;52977;44.816;20.538;2023-02-03T02:13:14;100503.50;;;3.59;85.32
66176;BME280;52977;44.816;20.538;2023-02-03T02:18:40;100516.31;;;3.74;84.47
66176;BME280;52977;44.816;20.538;2023-02-03T02:24:38;100520.09;;;3.73;84.76
66176;BME280;52977;44.816;20.538;2023-02-03T02:37:58;100534.44;;;3.79;84.26
66176;BME280;52977;44.816;20.538;2023-02-03T02:40:35;100541.44;;;3.75;84.42
66176;BME280;52977;44.816;20.538;2023-02-03T02:43:12;100535.94;;;3.65;85.37
66176;BME280;52977;44.816;20.538;2023-02-03T02:45:50;100520.16;;;3.24;86.77
66176;BME280;52977;44.816;20.538;2023-02-03T02:48:39;100546.34;;;3.51;85.83
66176;BME280;52977;44.816;20.538;2023-02-03T02:51:10;100528.81;;;3.53;86.02
66176;BME280;52977;44.816;20.538;2023-02-03T02:53:42;100546.34;;;3.51;87.22
66176;BME280;52977;44.816;20.538;2023-02-03T02:56:12;100500.69;;;3.22;86.04
66176;BME280;52977;44.816;20.538;2023-02-03T02:58:42;100518.59;;;3.33;86.05
66176;BME280;52977;44.816;20.538;2023-02-03T03:01:12;100476.31;;;3.12;86.14
66176;BME280;52977;44.816;20.538;2023-02-03T03:03:41;100549.56;;;3.48;86.22
66176;BME280;52977;44.816;20.538;2023-02-03T03:06:23;100540.78;;;3.35;86.39
66176;BME280;52977;44.816;20.538;2023-02-03T03:08:54;100507.47;;;3.24;85.89
66176;BME280;52977;44.816;20.538;2023-02-03T03:11:25;100545.75;;;3.49;86.03
66176;BME280;52977;44.816;20.538;2023-02-03T03:13:55;100481.81;;;3.00;86.30
66176;BME280;52977;44.816;20.538;2023-02-03T03:16:24;100560.47;;;3.36;86.04
66176;BME280;52977;44.816;20.538;2023-02-03T03:19:09;100514.94;;;2.95;85.80
66176;BME280;52977;44.816;20.538;2023-02-03T03:21:41;100575.94;;;3.40;87.00
66176;BME280;52977;44.816;20.538;2023-02-03T03:24:11;100586.66;;;3.35;86.16
66176;BME280;52977;44.816;20.538;2023-02-03T03:27:05;100574.03;;;3.41;85.43
66176;BME280;52977;44.816;20.538;2023-02-03T03:29:39;100601.13;;;3.51;85.18
66176;BME280;52977;44.816;20.538;2023-02-03T03:32:07;100570.03;;;3.21;85.96
66176;BME280;52977;44.816;20.538;2023-02-03T03:34:34;100600.22;;;3.18;86.88
66176;BME280;52977;44.816;20.538;2023-02-03T03:37:10;100525.56;;;2.80;86.11
66176;BME280;52977;44.816;20.538;2023-02-03T03:39:50;100516.16;;;2.82;85.88
66176;BME280;52977;44.816;20.538;2023-02-03T03:42:23;100576.75;;;3.19;87.18
66176;BME280;52977;44.816;20.538;2023-02-03T03:47:41;100550.91;;;3.01;85.81
66176;BME280;52977;44.816;20.538;2023-02-03T03:50:15;100529.75;;;2.93;85.37
66176;BME280;52977;44.816;20.538;2023-02-03T03:52:43;100594.38;;;3.27;85.42
66176;BME280;52977;44.816;20.538;2023-02-03T03:55:11;100589.03;;;3.32;85.26
66176;BME280;52977;44.816;20.538;2023-02-03T03:57:43;100555.34;;;3.12;84.77
66176;BME280;52977;44.816;20.538;2023-02-03T04:00:12;100593.00;;;3.24;85.38
66176;BME280;52977;44.816;20.538;2023-02-03T04:02:41;100518.66;;;2.89;84.97
66176;BME280;52977;44.816;20.538;2023-02-03T04:05:11;100548.06;;;2.90;86.03
66176;BME280;52977;44.816;20.538;2023-02-03T04:07:45;100590.94;;;3.31;84.40
66176;BME280;52977;44.816;20.538;2023-02-03T04:10:37;100584.22;;;3.34;84.79
66176;BME280;52977;44.816;20.538;2023-02-03T04:13:04;100604.09;;;3.28;84.34
66176;BME280;52977;44.816;20.538;2023-02-03T04:15:30;100596.44;;;3.41;83.90
66176;BME280;52977;44.816;20.538;2023-02-03T04:17:56;100594.50;;;3.15;84.95
66176;BME280;52977;44.816;20.538;2023-02-03T04:20:23;100591.81;;;3.15;84.48
66176;BME280;52977;44.816;20.538;2023-02-03T04:22:50;100593.06;;;3.07;86.08
66176;BME280;52977;44.816;20.538;2023-02-03T04:25:16;100563.25;;;2.97;85.91
66176;BME280;52977;44.816;20.538;2023-02-03T04:27:41;100560.38;;;3.03;85.03
66176;BME280;52977;44.816;20.538;2023-02-03T04:30:09;100599.38;;;3.40;84.52
66176;BME280;52977;44.816;20.538;2023-02-03T04:32:35;100500.47;;;2.79;83.76
66176;BME280;52977;44.816;20.538;2023-02-03T04:35:06;100562.94;;;3.15;83.09
66176;BME280;52977;44.816;20.538;2023-02-03T04:37:33;100542.47;;;2.97;83.03
66176;BME280;52977;44.816;20.538;2023-02-03T04:39:59;100591.28;;;3.40;83.18
66176;BME280;52977;44.816;20.538;2023-02-03T04:42:25;100514.69;;;2.97;82.50
66176;BME280;52977;44.816;20.538;2023-02-03T04:44:51;100593.88;;;3.30;83.44
66176;BME280;52977;44.816;20.538;2023-02-03T04:47:17;100605.56;;;3.35;82.76
66176;BME280;52977;44.816;20.538;2023-02-03T04:49:43;100605.53;;;3.13;84.32
66176;BME280;52977;44.816;20.538;2023-02-03T04:52:09;100570.53;;;3.18;83.18
66176;BME280;52977;44.816;20.538;2023-02-03T04:54:35;100525.31;;;3.03;82.84
66176;BME280;52977;44.816;20.538;2023-02-03T04:57:00;100591.34;;;3.45;82.46
66176;BME280;52977;44.816;20.538;2023-02-03T04:59:26;100600.25;;;3.23;83.00
66176;BME280;52977;44.816;20.538;2023-02-03T05:01:52;100597.56;;;3.23;83.63
66176;BME280;52977;44.816;20.538;2023-02-03T05:04:17;100605.28;;;3.37;83.40
66176;BME280;52977;44.816;20.538;2023-02-03T05:06:43;100563.50;;;3.17;82.71
66176;BME280;52977;44.816;20.538;2023-02-03T05:09:08;100597.53;;;3.40;82.47
66176;BME280;52977;44.816;20.538;2023-02-03T05:11:34;100597.81;;;3.22;82.36
66176;BME280;52977;44.816;20.538;2023-02-03T05:14:00;100550.00;;;2.95;83.44
66176;BME280;52977;44.816;20.538;2023-02-03T05:16:25;100566.09;;;3.07;83.11
66176;BME280;52977;44.816;20.538;2023-02-03T05:18:51;100593.25;;;3.22;83.14
66176;BME280;52977;44.816;20.538;2023-02-03T05:21:17;100602.03;;;3.13;82.95
66176;BME280;52977;44.816;20.538;2023-02-03T05:23:42;100620.44;;;3.38;83.31
66176;BME280;52977;44.816;20.538;2023-02-03T05:26:08;100568.78;;;3.07;82.47
66176;BME280;52977;44.816;20.538;2023-02-03T05:28:34;100554.19;;;2.86;83.31
66176;BME280;52977;44.816;20.538;2023-02-03T05:31:01;100621.16;;;3.33;83.27
66176;BME280;52977;44.816;20.538;2023-02-03T05:33:27;100619.22;;;3.29;84.08
66176;BME280;52977;44.816;20.538;2023-02-03T05:35:53;100625.75;;;3.33;83.38
66176;BME280;52977;44.816;20.538;2023-02-03T05:38:20;100632.78;;;3.34;84.17
66176;BME280;52977;44.816;20.538;2023-02-03T05:40:47;100562.50;;;3.01;83.60
66176;BME280;52977;44.816;20.538;2023-02-03T05:43:33;100613.38;;;3.15;84.62
66176;BME280;52977;44.816;20.538;2023-02-03T05:46:00;100556.53;;;2.77;84.48
66176;BME280;52977;44.816;20.538;2023-02-03T05:48:26;100600.66;;;3.10;85.01
66176;BME280;52977;44.816;20.538;2023-02-03T05:50:52;100479.84;;;2.29;84.94
66176;BME280;52977;44.816;20.538;2023-02-03T05:53:18;100567.22;;;2.72;85.58
66176;BME280;52977;44.816;20.538;2023-02-03T05:55:44;100558.84;;;2.68;86.07
66176;BME280;52977;44.816;20.538;2023-02-03T05:58:09;100612.13;;;3.00;86.49
66176;BME280;52977;44.816;20.538;2023-02-03T06:00:35;100628.31;;;3.00;86.95
66176;BME280;52977;44.816;20.538;2023-02-03T06:03:01;100632.63;;;3.01;87.11
66176;BME280;52977;44.816;20.538;2023-02-03T06:05:28;100656.47;;;3.10;86.94
66176;BME280;52977;44.816;20.538;2023-02-03T06:07:54;100635.16;;;3.08;86.50
66176;BME280;52977;44.816;20.538;2023-02-03T06:10:21;100588.75;;;2.67;86.97
66176;BME280;52977;44.816;20.538;2023-02-03T06:12:47;100647.28;;;2.88;87.19
66176;BME280;52977;44.816;20.538;2023-02-03T06:15:14;100646.16;;;2.84;87.84
66176;BME280;52977;44.816;20.538;2023-02-03T06:17:46;100644.16;;;2.97;87.03
66176;BME280;52977;44.816;20.538;2023-02-03T06:20:15;100645.34;;;2.84;87.55
66176;BME280;52977;44.816;20.538;2023-02-03T06:22:41;100618.41;;;2.67;87.83
66176;BME280;52977;44.816;20.538;2023-02-03T06:25:08;100619.19;;;2.67;87.69
66176;BME280;52977;44.816;20.538;2023-02-03T06:27:34;100654.97;;;2.97;87.46
66176;BME280;52977;44.816;20.538;2023-02-03T06:30:00;100654.28;;;3.06;86.81
66176;BME280;52977;44.816;20.538;2023-02-03T06:32:26;100588.56;;;2.56;87.46
66176;BME280;52977;44.816;20.538;2023-02-03T06:34:53;100620.94;;;2.96;85.29
66176;BME280;52977;44.816;20.538;2023-02-03T06:37:19;100596.72;;;2.79;85.17
66176;BME280;52977;44.816;20.538;2023-02-03T06:39:45;100654.44;;;3.00;86.32
66176;BME280;52977;44.816;20.538;2023-02-03T06:42:11;100606.88;;;2.71;86.18
66176;BME280;52977;44.816;20.538;2023-02-03T06:44:37;100663.69;;;3.04;85.68
66176;BME280;52977;44.816;20.538;2023-02-03T06:47:03;100659.38;;;3.03;85.82
66176;BME280;52977;44.816;20.538;2023-02-03T06:49:30;100633.06;;;2.76;86.12
66176;BME280;52977;44.816;20.538;2023-02-03T06:51:56;100662.00;;;2.98;86.80
66176;BME280;52977;44.816;20.538;2023-02-03T06:54:23;100660.72;;;3.05;86.20
66176;BME280;52977;44.816;20.538;2023-02-03T06:56:49;100627.75;;;2.81;85.79
66176;BME280;52977;44.816;20.538;2023-02-03T06:59:15;100653.97;;;3.03;84.95
66176;BME280;52977;44.816;20.538;2023-02-03T07:01:41;100626.28;;;2.90;85.16
66176;BME280;52977;44.816;20.538;2023-02-03T07:04:07;100656.00;;;3.13;83.86
66176;BME280;52977;44.816;20.538;2023-02-03T07:06:34;100595.78;;;2.34;86.70
66176;BME280;52977;44.816;20.538;2023-02-03T07:09:02;100664.94;;;2.96;86.39
66176;BME280;52977;44.816;20.538;2023-02-03T07:11:29;100669.25;;;3.14;84.50
66176;BME280;52977;44.816;20.538;2023-02-03T07:13:56;100564.91;;;2.59;83.64
66176;BME280;52977;44.816;20.538;2023-02-03T07:16:23;100676.28;;;3.37;82.84
66176;BME280;52977;44.816;20.538;2023-02-03T07:18:49;100670.06;;;3.37;83.11
66176;BME280;52977;44.816;20.538;2023-02-03T07:21:15;100672.69;;;3.32;83.51
66176;BME280;52977;44.816;20.538;2023-02-03T07:23:42;100673.31;;;3.39;83.02
66176;BME280;52977;44.816;20.538;2023-02-03T07:26:09;100671.84;;;3.09;83.69
66176;BME280;52977;44.816;20.538;2023-02-03T07:28:35;100683.19;;;3.11;83.76
66176;BME280;52977;44.816;20.538;2023-02-03T07:31:02;100680.59;;;3.16;83.97
66176;BME280;52977;44.816;20.538;2023-02-03T07:33:30;100680.84;;;3.15;83.50
66176;BME280;52977;44.816;20.538;2023-02-03T07:35:58;100625.75;;;2.71;83.81
66176;BME280;52977;44.816;20.538;2023-02-03T07:38:25;100650.81;;;2.72;84.50
66176;BME280;52977;44.816;20.538;2023-02-03T07:40:52;100690.84;;;2.63;87.24
66176;BME280;52977;44.816;20.538;2023-02-03T07:43:18;100646.47;;;2.20;87.83
66176;BME280;52977;44.816;20.538;2023-02-03T07:45:44;100640.44;;;2.13;88.15
66176;BME280;52977;44.816;20.538;2023-02-03T07:48:10;100614.31;;;2.13;nan
66176;BME280;52977;44.816;20.538;2023-02-03T07:50:37;100668.16;;;2.59;86.96
66176;BME280;52977;44.816;20.538;2023-02-03T07:53:04;100626.47;;;2.33;86.32
66176;BME280;52977;44.816;20.538;2023-02-03T07:55:30;100691.44;;;2.82;86.00
66176;BME280;52977;44.816;20.538;2023-02-03T07:57:56;100625.41;;;2.51;86.72
66176;BME280;52977;44.816;20.538;2023-02-03T08:00:25;100662.78;;;2.98;84.94
66176;BME280;52977;44.816;20.538;2023-02-03T08:02:52;100680.47;;;2.89;85.89
66176;BME280;52977;44.816;20.538;2023-02-03T08:05:18;100685.16;;;2.77;87.01
66176;BME280;52977;44.816;20.538;2023-02-03T08:07:45;100650.41;;;2.63;85.73
66176;BME280;52977;44.816;20.538;2023-02-03T08:10:13;100546.06;;;2.08;85.95
66176;BME280;52977;44.816;20.538;2023-02-03T08:12:40;100688.28;;;3.07;84.69
66176;BME280;52977;44.816;20.538;2023-02-03T08:15:08;100685.22;;;2.99;83.91
66176;BME280;52977;44.816;20.538;2023-02-03T08:17:35;100656.75;;;2.91;84.79
66176;BME280;52977;44.816;20.538;2023-02-03T08:20:04;100660.09;;;2.98;83.87
66176;BME280;52977;44.816;20.538;2023-02-03T08:22:30;100680.50;;;3.11;83.37
66176;BME280;52977;44.816;20.538;2023-02-03T08:24:56;100676.94;;;2.88;84.26
66176;BME280;52977;44.816;20.538;2023-02-03T08:27:23;100620.38;;;2.54;84.22
66176;BME280;52977;44.816;20.538;2023-02-03T08:29:49;100672.59;;;2.87;84.71
66176;BME280;52977;44.816;20.538;2023-02-03T08:32:20;100684.84;;;3.12;84.32
66176;BME280;52977;44.816;20.538;2023-02-03T08:34:48;100686.94;;;3.27;82.21
66176;BME280;52977;44.816;20.538;2023-02-03T08:37:17;100672.19;;;3.35;81.13
66176;BME280;52977;44.816;20.538;2023-02-03T08:39:43;100677.66;;;3.40;80.94
66176;BME280;52977;44.816;20.538;2023-02-03T08:42:10;100677.47;;;3.24;80.47
66176;BME280;52977;44.816;20.538;2023-02-03T08:44:36;100685.75;;;3.40;80.49
66176;BME280;52977;44.816;20.538;2023-02-03T08:47:05;100677.13;;;3.38;79.97
66176;BME280;52977;44.816;20.538;2023-02-03T08:49:31;100634.84;;;3.04;79.05
66176;BME280;52977;44.816;20.538;2023-02-03T08:51:58;100679.59;;;3.45;79.41
66176;BME280;52977;44.816;20.538;2023-02-03T08:54:25;100696.38;;;3.69;78.31
66176;BME280;52977;44.816;20.538;2023-02-03T08:56:51;100575.09;;;2.96;78.03
66176;BME280;52977;44.816;20.538;2023-02-03T08:59:17;100694.84;;;3.78;78.04
66176;BME280;52977;44.816;20.538;2023-02-03T09:01:44;100594.94;;;3.29;77.56
66176;BME280;52977;44.816;20.538;2023-02-03T09:04:11;100596.84;;;3.28;77.31
66176;BME280;52977;44.816;20.538;2023-02-03T09:06:38;100670.31;;;3.80;77.57
66176;BME280;52977;44.816;20.538;2023-02-03T09:09:04;100672.69;;;3.98;76.13
66176;BME280;52977;44.816;20.538;2023-02-03T09:11:30;100632.72;;;3.73;75.10
66176;BME280;52977;44.816;20.538;2023-02-03T09:13:57;100636.53;;;3.77;75.42
66176;BME280;52977;44.816;20.538;2023-02-03T09:16:24;100673.44;;;3.93;74.31
66176;BME280;52977;44.816;20.538;2023-02-03T09:18:50;100660.50;;;3.96;74.42
66176;BME280;52977;44.816;20.538;2023-02-03T09:21:16;100672.34;;;3.94;75.08
66176;BME280;52977;44.816;20.538;2023-02-03T09:23:43;100677.53;;;4.23;74.23
66176;BME280;52977;44.816;20.538;2023-02-03T09:26:12;100684.34;;;4.04;75.57
66176;BME280;52977;44.816;20.538;2023-02-03T09:28:39;100673.69;;;4.19;74.67
66176;BME280;52977;44.816;20.538;2023-02-03T09:31:08;100657.53;;;4.24;74.61
66176;BME280;52977;44.816;20.538;2023-02-03T09:33:35;100629.13;;;3.94;75.79
66176;BME280;52977;44.816;20.538;2023-02-03T09:36:01;100682.19;;;4.06;76.38
66176;BME280;52977;44.816;20.538;2023-02-03T09:38:28;100678.56;;;4.17;72.66
66176;BME280;52977;44.816;20.538;2023-02-03T09:43:42;100676.44;;;3.97;73.82
66176;BME280;52977;44.816;20.538;2023-02-03T09:46:16;100579.88;;;3.33;74.37
66176;BME280;52977;44.816;20.538;2023-02-03T09:48:52;100690.03;;;4.07;74.70
66176;BME280;52977;44.816;20.538;2023-02-03T09:51:24;100677.53;;;4.23;73.94
66176;BME280;52977;44.816;20.538;2023-02-03T09:54:59;100682.72;;;4.30;74.38
66176;BME280;52977;44.816;20.538;2023-02-03T09:56:54;100641.72;;;4.11;74.41
66176;BME280;52977;44.816;20.538;2023-02-03T09:59:26;100671.91;;;4.30;73.48
66176;BME280;52977;44.816;20.538;2023-02-03T10:05:24;100673.97;;;4.50;71.42
66176;BME280;52977;44.816;20.538;2023-02-03T10:10:47;100668.00;;;4.48;71.35
66176;BME280;52977;44.816;20.538;2023-02-03T10:18:56;100593.16;;;4.21;67.92
66176;BME280;52977;44.816;20.538;2023-02-03T10:23:51;100624.66;;;4.38;67.91
66176;BME280;52977;44.816;20.538;2023-02-03T10:26:22;100636.06;;;4.45;69.40
66176;BME280;52977;44.816;20.538;2023-02-03T10:28:54;100633.28;;;4.35;68.96
66176;BME280;52977;44.816;20.538;2023-02-03T10:31:23;100626.34;;;4.44;68.86
66176;BME280;52977;44.816;20.538;2023-02-03T10:33:59;100588.88;;;4.25;68.05
66176;BME280;52977;44.816;20.538;2023-02-03T10:36:38;100597.09;;;4.41;66.71
66176;BME280;52977;44.816;20.538;2023-02-03T10:39:28;100622.69;;;4.60;66.63
66176;BME280;52977;44.816;20.538;2023-02-03T10:41:56;100615.91;;;4.58;65.47
66176;BME280;52977;44.816;20.538;2023-02-03T10:44:28;100587.91;;;4.42;66.04
66176;BME280;52977;44.816;20.538;2023-02-03T10:46:56;100611.72;;;4.40;67.37
66176;BME280;52977;44.816;20.538;2023-02-03T10:49:25;100605.88;;;4.58;67.91
66176;BME280;52977;44.816;20.538;2023-02-03T10:51:54;100600.56;;;4.74;65.81
66176;BME280;52977;44.816;20.538;2023-02-03T10:54:31;100598.09;;;4.62;65.33
66176;BME280;52977;44.816;20.538;2023-02-03T10:57:02;100597.25;;;4.61;66.04
66176;BME280;52977;44.816;20.538;2023-02-03T10:59:33;100504.69;;;4.06;65.84
66176;BME280;52977;44.816;20.538;2023-02-03T11:02:07;100593.16;;;4.59;66.48
66176;BME280;52977;44.816;20.538;2023-02-03T11:04:34;100560.34;;;4.45;67.17
66176;BME280;52977;44.816;20.538;2023-02-03T11:07:03;100574.06;;;4.71;67.09
66176;BME280;52977;44.816;20.538;2023-02-03T11:09:38;100586.88;;;4.91;66.48
66176;BME280;52977;44.816;20.538;2023-02-03T11:12:13;100577.22;;;5.05;66.78
66176;BME280;52977;44.816;20.538;2023-02-03T11:14:42;100563.16;;;5.08;65.67
66176;BME280;52977;44.816;20.538;2023-02-03T11:17:23;100515.16;;;4.83;65.06
66176;BME280;52977;44.816;20.538;2023-02-03T11:19:53;100564.03;;;5.29;64.84
66176;BME280;52977;44.816;20.538;2023-02-03T11:22:36;100526.59;;;5.06;64.88
66176;BME280;52977;44.816;20.538;2023-02-03T11:25:26;100555.94;;;5.40;65.12
66176;BME280;52977;44.816;20.538;2023-02-03T11:27:55;100550.84;;;5.59;64.05
66176;BME280;52977;44.816;20.538;2023-02-03T11:30:24;100547.81;;;5.35;64.35
66176;BME280;52977;44.816;20.538;2023-02-03T11:32:51;100533.44;;;5.24;64.94
66176;BME280;52977;44.816;20.538;2023-02-03T11:35:25;100528.09;;;5.44;64.47
66176;BME280;52977;44.816;20.538;2023-02-03T11:37:56;100485.50;;;5.14;64.41
66176;BME280;52977;44.816;20.538;2023-02-03T11:50:46;100465.47;;;5.10;63.56
66176;BME280;52977;44.816;20.538;2023-02-03T12:01:29;100491.56;;;5.62;63.30
66176;BME280;52977;44.816;20.538;2023-02-03T12:15:44;100469.31;;;5.76;61.62
66176;BME280;52977;44.816;20.538;2023-02-03T12:24:09;100451.47;;;5.90;61.59
66176;BME280;52977;44.816;20.538;2023-02-03T12:29:15;100450.38;;;6.02;62.38
66176;BME280;52977;44.816;20.538;2023-02-03T12:32:08;100432.47;;;6.16;61.98
66176;BME280;52977;44.816;20.538;2023-02-03T12:34:42;100425.38;;;6.36;61.95
66176;BME280;52977;44.816;20.538;2023-02-03T12:39:43;100409.97;;;6.15;60.13
66176;BME280;52977;44.816;20.538;2023-02-03T12:44:54;100394.00;;;6.14;60.91
66176;BME280;52977;44.816;20.538;2023-02-03T12:50:16;100379.38;;;6.05;61.06
66176;BME280;52977;44.816;20.538;2023-02-03T12:52:49;100392.59;;;6.16;60.90
66176;BME280;52977;44.816;20.538;2023-02-03T12:57:58;100287.06;;;5.60;56.69
66176;BME280;52977;44.816;20.538;2023-02-03T13:00:46;100374.69;;;6.26;56.70
66176;BME280;52977;44.816;20.538;2023-02-03T13:08:37;100370.66;;;6.13;56.74
66176;BME280;52977;44.816;20.538;2023-02-03T13:11:30;100323.81;;;5.92;57.63
66176;BME280;52977;44.816;20.538;2023-02-03T13:14:04;100359.25;;;6.21;58.37
66176;BME280;52977;44.816;20.538;2023-02-03T13:16:39;100336.28;;;6.03;58.39
66176;BME280;52977;44.816;20.538;2023-02-03T13:19:16;100321.66;;;6.04;58.50
66176;BME280;52977;44.816;20.538;2023-02-03T13:21:43;100341.91;;;6.17;58.84
66176;BME280;52977;44.816;20.538;2023-02-03T13:24:11;100320.28;;;6.02;59.38
66176;BME280;52977;44.816;20.538;2023-02-03T13:27:18;100326.97;;;6.25;59.75
66176;BME280;52977;44.816;20.538;2023-02-03T13:33:06;100285.63;;;5.83;60.51
66176;BME280;52977;44.816;20.538;2023-02-03T13:35:49;100328.09;;;6.08;61.07
66176;BME280;52977;44.816;20.538;2023-02-03T13:39:19;100258.56;;;5.68;61.46
66176;BME280;52977;44.816;20.538;2023-02-03T13:41:25;100304.03;;;6.02;61.04
66176;BME280;52977;44.816;20.538;2023-02-03T13:43:56;100305.63;;;6.13;61.53
66176;BME280;52977;44.816;20.538;2023-02-03T13:46:25;100196.63;;;5.51;61.04
66176;BME280;52977;44.816;20.538;2023-02-03T13:48:52;100286.66;;;6.08;61.38
66176;BME280;52977;44.816;20.538;2023-02-03T13:51:25;100298.50;;;6.22;60.64
66176;BME280;52977;44.816;20.538;2023-02-03T13:53:59;100210.38;;;5.64;60.88
66176;BME280;52977;44.816;20.538;2023-02-03T13:56:26;100278.78;;;6.11;60.97
66176;BME280;52977;44.816;20.538;2023-02-03T13:59:04;100271.47;;;6.12;60.48
66176;BME280;52977;44.816;20.538;2023-02-03T14:01:44;100225.19;;;5.88;60.54
66176;BME280;52977;44.816;20.538;2023-02-03T14:07:36;100201.06;;;5.91;60.49
66176;BME280;52977;44.816;20.538;2023-02-03T14:12:54;100245.16;;;6.12;60.61
66176;BME280;52977;44.816;20.538;2023-02-03T14:22:53;100216.09;;;6.18;60.54
66176;BME280;52977;44.816;20.538;2023-02-03T14:25:21;100206.97;;;6.04;60.90
66176;BME280;52977;44.816;20.538;2023-02-03T14:27:58;100165.88;;;5.81;61.35
66176;BME280;52977;44.816;20.538;2023-02-03T14:30:25;100192.25;;;6.20;60.72
66176;BME280;52977;44.816;20.538;2023-02-03T14:32:56;100194.38;;;6.28;60.23
66176;BME280;52977;44.816;20.538;2023-02-03T14:35:34;100170.78;;;6.29;60.39
66176;BME280;52977;44.816;20.538;2023-02-03T14:40:40;100161.00;;;6.28;61.15
66176;BME280;52977;44.816;20.538;2023-02-03T14:43:26;100153.72;;;6.28;61.21
66176;BME280;52977;44.816;20.538;2023-02-03T15:02:14;100106.28;;;6.26;62.68
66176;BME280;52977;44.816;20.538;2023-02-03T15:04:42;100113.81;;;6.34;62.71
66176;BME280;52977;44.816;20.538;2023-02-03T15:07:45;100107.81;;;6.37;62.67
66176;BME280;52977;44.816;20.538;2023-02-03T15:10:19;100095.41;;;6.31;62.80
66176;BME280;52977;44.816;20.538;2023-02-03T15:12:54;99982.94;;;5.54;62.98
66176;BME280;52977;44.816;20.538;2023-02-03T15:15:26;100025.53;;;5.83;63.28